Time;durP1;ratioP1;P1;durP2;ratioP2;P2;SDS_P1;SDS_P2;PMS_P1;PMS_P2;Temp;Humidity;BMP_temperature;BMP_pressure;BME280_temperature;BME280_humidity;BME280_pressure;Samples;Min_cycle;Max_cycle;Signal;HPM_P1;HPM_P2
2021/08/23 00:01:06;;;;;;;;;;;16.30;99.90;;;;;;5013528;28;19925;-85
2021/08/23 00:03:32;;;;;;;;;;;16.30;99.90;;;;;;5003623;28;19968;-85
2021/08/23 00:05:59;;;;;;;;;;;16.20;99.90;;;;;;5025637;28;20043;-85
2021/08/23 00:08:25;;;;;;;;;;;16.30;99.90;;;;;;5028236;28;20454;-86
2021/08/23 00:10:51;;;;;;;;;;;16.30;99.90;;;;;;5007985;28;20456;-85
2021/08/23 00:13:17;;;;;;;;;;;16.30;99.90;;;;;;4991258;28;19933;-85
2021/08/23 00:15:45;;;;;;;;;;;16.20;99.90;;;;;;5018676;28;19932;-86
2021/08/23 00:18:11;;;;;;;;;;;16.20;99.90;;;;;;5012084;28;20343;-87
2021/08/23 00:20:44;;;;;;;;;;;16.10;99.90;;;;;;5013026;28;19933;-86
2021/08/23 00:23:11;;;;;;;;;;;16.10;99.90;;;;;;4983231;28;19921;-85
2021/08/23 00:25:38;;;;;;;;;;;16.10;99.90;;;;;;5024950;28;20357;-86
2021/08/23 00:28:03;;;;;;;;;;;16.00;99.90;;;;;;5010944;28;19949;-86
2021/08/23 00:30:30;;;;;;;;;;;16.10;99.90;;;;;;5028900;28;19924;-86
2021/08/23 00:32:55;;;;;;;;;;;16.10;99.90;;;;;;4995242;28;20312;-86
2021/08/23 00:35:21;;;;;;;;;;;16.00;99.90;;;;;;4991240;28;19930;-85
2021/08/23 00:37:47;;;;;;;;;;;16.00;99.90;;;;;;4991879;28;19922;-86
2021/08/23 00:40:13;;;;;;;;;;;16.00;99.90;;;;;;5007993;28;19929;-86
2021/08/23 00:42:39;;;;;;;;;;;16.00;99.90;;;;;;5028559;28;20739;-86
2021/08/23 00:45:06;;;;;;;;;;;16.00;99.90;;;;;;5010630;28;19925;-86
2021/08/23 00:47:31;;;;;;;;;;;16.00;99.90;;;;;;5011653;28;19925;-86
2021/08/23 00:49:57;;;;;;;;;;;16.00;99.90;;;;;;4991373;28;19925;-85
2021/08/23 00:52:23;;;;;;;;;;;16.00;99.90;;;;;;5008365;28;20289;-86
2021/08/23 00:54:49;;;;;;;;;;;16.10;99.90;;;;;;5010242;28;19929;-86
2021/08/23 00:57:15;;;;;;;;;;;16.10;99.90;;;;;;5011521;28;19929;-86
2021/08/23 00:59:41;;;;;;;;;;;16.10;99.90;;;;;;5010942;28;19925;-85
2021/08/23 01:02:10;;;;;;;;;;;16.10;99.90;;;;;;5011378;28;19976;-86
2021/08/23 01:04:39;;;;;;;;;;;16.10;99.90;;;;;;5011525;28;19932;-87
2021/08/23 01:07:08;;;;;;;;;;;16.20;99.90;;;;;;5028673;28;19971;-86
2021/08/23 01:09:35;;;;;;;;;;;16.20;99.90;;;;;;5011153;28;20008;-86
2021/08/23 01:12:02;;;;;;;;;;;16.10;99.90;;;;;;4991670;28;19932;-86
2021/08/23 01:14:28;;;;;;;;;;;16.20;99.90;;;;;;5012699;28;19932;-86
2021/08/23 01:16:54;;;;;;;;;;;16.20;99.90;;;;;;5029048;28;20300;-86
2021/08/23 01:19:25;;;;;;;;;;;16.20;99.90;;;;;;5011366;28;20440;-86
2021/08/23 01:21:52;;;;;;;;;;;16.20;99.90;;;;;;4995220;28;19951;-86
2021/08/23 01:24:19;;;;;;;;;;;16.20;99.90;;;;;;5041498;28;20440;-86
2021/08/23 01:26:46;;;;;;;;;;;16.20;99.90;;;;;;5009294;28;19944;-85
2021/08/23 01:29:17;;;;;;;;;;;16.20;99.90;;;;;;4993265;28;19926;-86
2021/08/23 01:31:50;;;;;;;;;;;16.20;99.90;;;;;;5032107;28;19975;-86
2021/08/23 01:34:17;;;;;;;;;;;16.20;99.90;;;;;;4991095;28;19921;-86
2021/08/23 01:36:43;;;;;;;;;;;16.20;99.90;;;;;;5001630;28;20109;-86
2021/08/23 01:39:08;;;;;;;;;;;16.20;99.90;;;;;;5010656;28;20396;-85
2021/08/23 01:41:34;;;;;;;;;;;16.20;99.90;;;;;;4994241;28;19932;-85
2021/08/23 01:44:01;;;;;;;;;;;16.20;99.90;;;;;;5028522;28;19936;-86
2021/08/23 01:46:31;;;;;;;;;;;16.20;99.90;;;;;;5026831;28;19929;-86
2021/08/23 01:48:57;;;;;;;;;;;16.20;99.90;;;;;;4996913;28;19948;-85
2021/08/23 01:51:29;;;;;;;;;;;16.20;99.90;;;;;;5003224;28;20080;-86
2021/08/23 01:53:55;;;;;;;;;;;16.10;99.90;;;;;;4989728;28;20569;-86
2021/08/23 01:56:21;;;;;;;;;;;16.20;99.90;;;;;;4974549;28;19922;-86
2021/08/23 01:58:47;;;;;;;;;;;16.20;99.90;;;;;;5011396;28;20376;-85
2021/08/23 02:01:12;;;;;;;;;;;16.20;99.90;;;;;;4995693;28;19975;-86
2021/08/23 02:03:38;;;;;;;;;;;16.10;99.90;;;;;;5011437;28;20839;-86
2021/08/23 02:06:04;;;;;;;;;;;16.10;99.90;;;;;;5015054;28;20384;-86
2021/08/23 02:08:30;;;;;;;;;;;16.00;99.90;;;;;;5020747;28;20016;-86
2021/08/23 02:10:56;;;;;;;;;;;16.00;99.90;;;;;;4993998;28;19925;-86
2021/08/23 02:13:22;;;;;;;;;;;16.00;99.90;;;;;;4975267;28;20408;-85
2021/08/23 02:15:48;;;;;;;;;;;16.00;99.90;;;;;;4990482;28;19925;-86
2021/08/23 02:18:14;;;;;;;;;;;16.10;99.90;;;;;;4992709;28;20411;-86
2021/08/23 02:20:40;;;;;;;;;;;16.00;99.90;;;;;;4983628;28;19925;-86
2021/08/23 02:23:06;;;;;;;;;;;16.00;99.90;;;;;;5022256;28;19933;-85
2021/08/23 02:25:32;;;;;;;;;;;16.00;99.90;;;;;;4993459;28;19930;-87
2021/08/23 02:27:58;;;;;;;;;;;16.00;99.90;;;;;;5011503;28;19953;-86
2021/08/23 02:30:23;;;;;;;;;;;16.00;99.90;;;;;;5009857;28;20301;-86
2021/08/23 02:32:49;;;;;;;;;;;15.90;99.90;;;;;;5010673;28;19925;-86
2021/08/23 02:35:16;;;;;;;;;;;15.90;99.90;;;;;;5009558;28;19926;-86
2021/08/23 02:37:41;;;;;;;;;;;15.90;99.90;;;;;;5008921;28;19929;-86
2021/08/23 02:40:07;;;;;;;;;;;15.90;99.90;;;;;;5001846;28;19972;-85
2021/08/23 02:42:33;;;;;;;;;;;15.90;99.90;;;;;;5007066;28;19929;-86
2021/08/23 02:44:59;;;;;;;;;;;15.90;99.90;;;;;;4983393;28;19925;-86
2021/08/23 02:47:24;;;;;;;;;;;15.90;99.90;;;;;;4990712;28;19925;-87
2021/08/23 02:49:50;;;;;;;;;;;15.90;99.90;;;;;;5009921;28;19921;-86
2021/08/23 02:52:16;;;;;;;;;;;15.80;99.90;;;;;;4975903;28;19972;-86
2021/08/23 02:54:41;;;;;;;;;;;15.80;99.90;;;;;;4955098;28;20389;-87
2021/08/23 02:57:07;;;;;;;;;;;15.80;99.90;;;;;;4960629;28;20293;-86
2021/08/23 02:59:33;;;;;;;;;;;15.80;99.90;;;;;;4950997;28;19926;-86
2021/08/23 03:01:59;;;;;;;;;;;15.80;99.90;;;;;;4987093;28;20476;-86
2021/08/23 03:04:25;;;;;;;;;;;15.80;99.90;;;;;;4980515;28;20024;-86
2021/08/23 03:06:50;;;;;;;;;;;15.80;99.90;;;;;;4991397;28;19932;-86
2021/08/23 03:09:16;;;;;;;;;;;15.70;99.90;;;;;;5005226;28;19926;-86
2021/08/23 03:11:42;;;;;;;;;;;15.80;99.90;;;;;;4983290;28;19929;-86
2021/08/23 03:14:07;;;;;;;;;;;15.70;99.90;;;;;;4972550;28;19937;-85
2021/08/23 03:16:33;;;;;;;;;;;15.60;99.90;;;;;;4989249;28;19922;-86
2021/08/23 03:18:59;;;;;;;;;;;15.60;99.90;;;;;;4990230;28;19930;-86
2021/08/23 03:21:25;;;;;;;;;;;15.60;99.90;;;;;;4988837;28;19937;-86
2021/08/23 03:23:52;;;;;;;;;;;15.60;99.90;;;;;;4989290;28;20020;-86
2021/08/23 03:26:17;;;;;;;;;;;15.60;99.90;;;;;;4989475;28;20020;-87
2021/08/23 03:28:43;;;;;;;;;;;15.50;99.90;;;;;;4990077;28;19926;-86
2021/08/23 03:31:09;;;;;;;;;;;15.50;99.90;;;;;;4989027;28;20392;-85
2021/08/23 03:33:35;;;;;;;;;;;15.50;99.90;;;;;;4990145;28;19922;-85
2021/08/23 03:36:01;;;;;;;;;;;15.40;99.90;;;;;;4993046;28;20401;-85
2021/08/23 03:38:26;;;;;;;;;;;15.30;99.90;;;;;;4973411;28;19922;-86
2021/08/23 03:40:52;;;;;;;;;;;15.20;99.90;;;;;;4987691;28;19922;-86
2021/08/23 03:43:18;;;;;;;;;;;15.20;99.90;;;;;;5021942;28;20340;-86
2021/08/23 03:45:45;;;;;;;;;;;15.10;99.90;;;;;;4989507;28;19945;-86
2021/08/23 03:48:10;;;;;;;;;;;15.00;99.90;;;;;;5022035;28;20289;-86
2021/08/23 03:50:36;;;;;;;;;;;15.10;99.90;;;;;;4991445;28;19936;-86
2021/08/23 03:53:02;;;;;;;;;;;15.10;99.90;;;;;;5013065;28;20380;-86
2021/08/23 03:55:27;;;;;;;;;;;15.10;99.90;;;;;;5011782;28;19928;-87
2021/08/23 03:57:53;;;;;;;;;;;15.10;99.90;;;;;;5011879;28;19936;-85
2021/08/23 04:00:19;;;;;;;;;;;15.10;99.90;;;;;;5012249;28;19925;-86
2021/08/23 04:02:48;;;;;;;;;;;15.00;99.90;;;;;;5011127;28;19940;-86
2021/08/23 04:05:13;;;;;;;;;;;15.00;99.90;;;;;;5012204;28;19994;-85
2021/08/23 04:07:39;;;;;;;;;;;15.00;99.90;;;;;;5011013;28;19929;-86
2021/08/23 04:10:05;;;;;;;;;;;15.10;99.90;;;;;;5011928;28;19924;-86
2021/08/23 04:12:31;;;;;;;;;;;15.00;99.90;;;;;;5004396;28;20470;-86
2021/08/23 04:14:58;;;;;;;;;;;14.90;99.90;;;;;;5006934;28;19921;-86
2021/08/23 04:17:24;;;;;;;;;;;14.90;99.90;;;;;;4992070;28;20385;-86
2021/08/23 04:19:50;;;;;;;;;;;14.90;99.90;;;;;;5008212;28;19932;-87
2021/08/23 04:22:15;;;;;;;;;;;14.90;99.90;;;;;;4983131;28;20011;-86
2021/08/23 04:24:42;;;;;;;;;;;14.90;99.90;;;;;;5007443;28;20396;-86
2021/08/23 04:27:07;;;;;;;;;;;14.90;99.90;;;;;;5011330;28;19921;-86
2021/08/23 04:29:33;;;;;;;;;;;14.80;99.90;;;;;;5012150;28;19927;-86
2021/08/23 04:31:59;;;;;;;;;;;14.80;99.90;;;;;;5027263;28;19921;-86
2021/08/23 04:34:25;;;;;;;;;;;14.80;99.90;;;;;;4994683;28;19975;-86
2021/08/23 04:36:50;;;;;;;;;;;14.80;99.90;;;;;;5006406;28;19928;-86
2021/08/23 04:39:16;;;;;;;;;;;14.80;99.90;;;;;;5026999;28;20464;-86
2021/08/23 04:41:42;;;;;;;;;;;14.80;99.90;;;;;;5007070;28;19925;-86
2021/08/23 04:44:08;;;;;;;;;;;14.70;99.90;;;;;;5024426;28;19949;-85
2021/08/23 04:46:34;;;;;;;;;;;14.70;99.90;;;;;;5011568;28;20379;-86
2021/08/23 04:49:02;;;;;;;;;;;14.70;99.90;;;;;;4995714;28;21613;-85
2021/08/23 04:51:28;;;;;;;;;;;14.70;99.90;;;;;;5009971;28;19979;-86
2021/08/23 04:53:54;;;;;;;;;;;14.70;99.90;;;;;;5013510;28;19936;-86
2021/08/23 04:56:20;;;;;;;;;;;14.70;99.90;;;;;;5011611;28;19924;-86
2021/08/23 04:58:45;;;;;;;;;;;14.70;99.90;;;;;;5011117;28;19921;-86
2021/08/23 05:01:11;;;;;;;;;;;14.70;99.90;;;;;;5009922;28;20394;-86
2021/08/23 05:03:37;;;;;;;;;;;14.70;99.90;;;;;;4998702;28;19944;-86
2021/08/23 05:06:03;;;;;;;;;;;14.70;99.90;;;;;;4992418;28;19996;-86
2021/08/23 05:08:28;;;;;;;;;;;14.70;99.90;;;;;;5010232;28;19932;-86
2021/08/23 05:10:54;;;;;;;;;;;14.70;99.90;;;;;;5011363;28;19940;-86
2021/08/23 05:13:20;;;;;;;;;;;14.70;99.90;;;;;;5010378;28;19975;-86
2021/08/23 05:15:46;;;;;;;;;;;14.70;99.90;;;;;;5007799;28;20405;-86
2021/08/23 05:18:11;;;;;;;;;;;14.80;99.90;;;;;;4994616;28;19929;-86
2021/08/23 05:20:37;;;;;;;;;;;14.70;99.90;;;;;;4994543;28;20344;-86
2021/08/23 05:23:03;;;;;;;;;;;14.70;99.90;;;;;;4998302;28;19925;-86
2021/08/23 05:25:32;;;;;;;;;;;14.80;99.90;;;;;;5007859;28;20016;-87
2021/08/23 05:27:57;;;;;;;;;;;14.70;99.90;;;;;;5008334;28;19983;-87
2021/08/23 05:30:23;;;;;;;;;;;14.70;99.90;;;;;;5000153;28;19922;-87
2021/08/23 05:32:49;;;;;;;;;;;14.70;99.90;;;;;;5000334;28;19925;-86
2021/08/23 05:35:15;;;;;;;;;;;14.70;99.90;;;;;;5022503;28;19932;-86
2021/08/23 05:37:41;;;;;;;;;;;14.70;99.90;;;;;;5003177;28;20027;-86
2021/08/23 05:40:07;;;;;;;;;;;14.70;99.90;;;;;;5010859;28;19925;-86
2021/08/23 05:42:33;;;;;;;;;;;14.80;99.90;;;;;;5007686;28;20008;-87
2021/08/23 05:44:58;;;;;;;;;;;14.80;99.90;;;;;;5012001;28;20051;-86
2021/08/23 05:47:24;;;;;;;;;;;14.90;99.90;;;;;;4993905;28;19921;-86
2021/08/23 05:49:50;;;;;;;;;;;14.80;99.90;;;;;;5023342;28;20387;-86
2021/08/23 05:52:16;;;;;;;;;;;14.90;99.90;;;;;;5031381;28;20011;-86
2021/08/23 05:54:43;;;;;;;;;;;14.90;99.90;;;;;;5016464;28;19975;-86
2021/08/23 05:57:10;;;;;;;;;;;15.00;99.90;;;;;;4995552;28;19972;-86
2021/08/23 05:59:35;;;;;;;;;;;15.00;99.90;;;;;;5011453;28;19953;-86
2021/08/23 06:02:01;;;;;;;;;;;14.90;99.90;;;;;;4995216;28;20708;-86
2021/08/23 06:04:27;;;;;;;;;;;15.00;99.90;;;;;;4991592;28;19926;-86
2021/08/23 06:06:52;;;;;;;;;;;15.00;99.90;;;;;;4991501;28;20286;-86
2021/08/23 06:09:19;;;;;;;;;;;15.00;99.90;;;;;;4978524;28;20019;-87
2021/08/23 06:11:44;;;;;;;;;;;15.00;99.90;;;;;;4994570;28;19921;-86
2021/08/23 06:14:10;;;;;;;;;;;15.10;99.90;;;;;;5027704;28;19929;-87
2021/08/23 06:16:36;;;;;;;;;;;15.10;99.90;;;;;;5010991;28;19926;-87
2021/08/23 06:19:02;;;;;;;;;;;15.20;99.90;;;;;;5012114;28;20015;-86
2021/08/23 06:21:28;;;;;;;;;;;15.20;99.90;;;;;;4995040;28;19925;-86
2021/08/23 06:23:54;;;;;;;;;;;15.20;99.90;;;;;;5008985;28;19925;-87
2021/08/23 06:26:20;;;;;;;;;;;15.20;99.90;;;;;;4994685;28;20395;-87
2021/08/23 06:28:45;;;;;;;;;;;15.20;99.90;;;;;;4978004;28;19921;-86
2021/08/23 06:31:11;;;;;;;;;;;15.30;99.90;;;;;;5008793;28;20396;-87
2021/08/23 06:33:37;;;;;;;;;;;15.30;99.90;;;;;;4994570;28;19929;-86
2021/08/23 06:36:03;;;;;;;;;;;15.40;99.90;;;;;;5010527;28;19979;-86
2021/08/23 06:38:28;;;;;;;;;;;15.40;99.90;;;;;;5015501;28;19968;-87
2021/08/23 06:40:54;;;;;;;;;;;15.50;99.90;;;;;;5013780;28;20344;-86
2021/08/23 06:43:21;;;;;;;;;;;15.50;99.90;;;;;;5009906;28;19922;-86
2021/08/23 06:45:47;;;;;;;;;;;15.60;99.90;;;;;;4992969;28;19925;-86
2021/08/23 06:48:12;;;;;;;;;;;15.60;99.90;;;;;;5007516;28;19921;-86
2021/08/23 06:50:38;;;;;;;;;;;15.60;99.90;;;;;;4998395;28;19929;-86
2021/08/23 06:53:04;;;;;;;;;;;15.70;99.90;;;;;;5013652;28;20316;-87
2021/08/23 06:55:30;;;;;;;;;;;15.70;99.90;;;;;;5006417;28;19979;-89
2021/08/23 06:57:56;;;;;;;;;;;15.70;99.90;;;;;;5030482;28;19925;-88
2021/08/23 07:00:22;;;;;;;;;;;15.80;99.90;;;;;;4992072;28;19972;-87
2021/08/23 07:02:50;;;;;;;;;;;15.80;99.90;;;;;;4996568;28;19929;-87
2021/08/23 07:05:16;;;;;;;;;;;15.90;99.90;;;;;;4984740;28;19929;-88
2021/08/23 07:07:41;;;;;;;;;;;15.90;99.90;;;;;;4994698;28;19925;-88
2021/08/23 07:10:11;;;;;;;;;;;15.90;99.90;;;;;;5008586;28;20328;-87
2021/08/23 07:12:36;;;;;;;;;;;16.00;99.90;;;;;;5009180;28;20008;-88
2021/08/23 07:15:02;;;;;;;;;;;16.00;99.90;;;;;;5003592;28;20015;-88
2021/08/23 07:17:28;;;;;;;;;;;16.10;99.90;;;;;;5008203;28;20411;-88
2021/08/23 07:19:54;;;;;;;;;;;16.00;99.90;;;;;;5012878;28;19925;-88
2021/08/23 07:22:19;;;;;;;;;;;16.20;99.90;;;;;;4997280;28;19925;-91
2021/08/23 07:24:46;;;;;;;;;;;16.20;99.90;;;;;;4989924;28;19922;-88
2021/08/23 07:27:22;;;;;;;;;;;16.20;99.90;;;;;;5013552;28;20020;-88
2021/08/23 07:29:48;;;;;;;;;;;16.30;99.90;;;;;;4975576;28;20039;-86
2021/08/23 07:32:14;;;;;;;;;;;16.30;99.90;;;;;;5025534;28;19929;-87
2021/08/23 07:34:40;;;;;;;;;;;16.30;99.90;;;;;;5006070;28;19925;-87
2021/08/23 07:37:08;;;;;;;;;;;16.30;99.90;;;;;;5015896;28;19924;-87
2021/08/23 07:39:37;;;;;;;;;;;16.40;99.90;;;;;;5029662;28;19925;-87
2021/08/23 07:42:03;;;;;;;;;;;16.40;99.90;;;;;;5012705;28;19956;-87
2021/08/23 07:44:29;;;;;;;;;;;16.40;99.90;;;;;;5008973;28;19936;-87
2021/08/23 07:46:57;;;;;;;;;;;16.50;99.90;;;;;;4991726;28;19925;-87
2021/08/23 07:49:25;;;;;;;;;;;16.50;99.90;;;;;;4986825;28;19925;-86
2021/08/23 07:51:51;;;;;;;;;;;16.60;99.90;;;;;;5032666;28;19932;-87
2021/08/23 07:54:18;;;;;;;;;;;16.50;99.90;;;;;;4997143;28;19956;-87
2021/08/23 07:56:44;;;;;;;;;;;16.50;99.90;;;;;;5013117;28;20369;-86
2021/08/23 07:59:10;;;;;;;;;;;16.60;99.90;;;;;;4998657;28;20050;-87
2021/08/23 08:01:36;;;;;;;;;;;16.60;99.90;;;;;;5015046;28;19935;-88
2021/08/23 08:04:04;;;;;;;;;;;16.70;99.90;;;;;;5029069;28;19921;-85
2021/08/23 08:06:30;;;;;;;;;;;16.70;99.90;;;;;;4998719;28;19928;-84
2021/08/23 08:08:59;;;;;;;;;;;16.70;99.90;;;;;;4997679;28;19921;-85
2021/08/23 08:11:25;;;;;;;;;;;16.70;99.90;;;;;;4994438;28;19927;-84
2021/08/23 08:13:51;;;;;;;;;;;16.60;99.90;;;;;;5012911;28;19929;-84
2021/08/23 08:16:18;;;;;;;;;;;16.60;99.90;;;;;;5003714;28;19936;-84
2021/08/23 08:18:44;;;;;;;;;;;16.60;99.90;;;;;;4995664;28;20015;-84
2021/08/23 08:21:09;;;;;;;;;;;16.70;99.90;;;;;;5013389;28;20032;-84
2021/08/23 08:23:37;;;;;;;;;;;16.70;99.90;;;;;;5032963;28;20483;-83
2021/08/23 08:26:03;;;;;;;;;;;16.70;99.90;;;;;;5034392;28;20032;-84
2021/08/23 08:28:32;;;;;;;;;;;16.70;99.90;;;;;;5017016;28;19925;-84
2021/08/23 08:30:58;;;;;;;;;;;16.70;99.90;;;;;;5012800;28;19928;-84
2021/08/23 08:33:24;;;;;;;;;;;16.60;99.90;;;;;;5031945;28;19921;-84
2021/08/23 08:35:57;;;;;;;;;;;16.70;99.90;;;;;;5018651;28;20015;-85
2021/08/23 08:38:23;;;;;;;;;;;16.60;99.90;;;;;;5029633;28;19956;-84
2021/08/23 08:40:49;;;;;;;;;;;16.70;99.90;;;;;;5011193;28;20447;-84
2021/08/23 08:43:15;;;;;;;;;;;16.80;99.90;;;;;;5028821;28;19921;-84
2021/08/23 08:45:44;;;;;;;;;;;16.80;99.90;;;;;;5011459;28;19931;-84
2021/08/23 08:48:10;;;;;;;;;;;16.90;99.90;;;;;;5011460;28;20372;-84
2021/08/23 08:50:38;;;;;;;;;;;16.90;99.90;;;;;;4993540;28;19929;-84
2021/08/23 08:53:07;;;;;;;;;;;16.90;99.90;;;;;;5015669;28;19933;-84
2021/08/23 08:55:42;;;;;;;;;;;16.90;99.90;;;;;;5011147;28;20479;-84
2021/08/23 08:58:08;;;;;;;;;;;16.90;99.90;;;;;;5027409;28;19929;-84
2021/08/23 09:00:37;;;;;;;;;;;16.90;99.90;;;;;;5027477;28;19925;-84
2021/08/23 09:03:03;;;;;;;;;;;16.80;99.90;;;;;;5002097;28;19967;-84
2021/08/23 09:05:37;;;;;;;;;;;16.80;99.90;;;;;;5011249;28;19925;-84
2021/08/23 09:08:03;;;;;;;;;;;16.90;99.90;;;;;;5014197;28;20315;-85
2021/08/23 09:10:29;;;;;;;;;;;16.80;99.90;;;;;;5028608;28;20443;-84
2021/08/23 09:13:02;;;;;;;;;;;16.80;99.90;;;;;;4997475;28;20023;-84
2021/08/23 09:15:52;;;;;;;;;;;16.70;99.90;;;;;;5001838;28;19972;-84
2021/08/23 09:18:24;;;;;;;;;;;16.80;99.90;;;;;;5012125;28;20003;-84
2021/08/23 09:20:58;;;;;;;;;;;16.80;99.90;;;;;;5013508;28;20067;-84
2021/08/23 09:23:33;;;;;;;;;;;16.80;99.90;;;;;;5029921;28;19928;-84
2021/08/23 09:26:06;;;;;;;;;;;16.90;99.90;;;;;;5014000;28;19924;-84
2021/08/23 09:28:35;;;;;;;;;;;16.90;99.90;;;;;;5032725;28;19921;-85
2021/08/23 09:31:25;;;;;;;;;;;16.90;99.90;;;;;;5003435;28;19921;-84
2021/08/23 09:33:51;;;;;;;;;;;17.00;99.90;;;;;;5032618;28;19971;-84
2021/08/23 09:36:19;;;;;;;;;;;17.00;99.90;;;;;;5015434;28;20375;-84
2021/08/23 09:38:58;;;;;;;;;;;17.00;99.90;;;;;;5014863;28;19978;-84
2021/08/23 09:41:26;;;;;;;;;;;16.90;99.90;;;;;;5029893;28;20054;-84
2021/08/23 09:44:19;;;;;;;;;;;16.90;99.90;;;;;;5032430;28;20906;-84
2021/08/23 09:46:45;;;;;;;;;;;16.80;99.90;;;;;;5028541;28;19921;-84
2021/08/23 09:49:12;;;;;;;;;;;16.90;99.90;;;;;;5014743;28;19929;-84
2021/08/23 09:51:47;;;;;;;;;;;16.80;99.90;;;;;;5006044;28;20025;-84
2021/08/23 09:54:17;;;;;;;;;;;16.90;99.90;;;;;;4991326;28;20405;-84
2021/08/23 09:56:53;;;;;;;;;;;16.90;99.90;;;;;;4992010;28;19932;-84
2021/08/23 09:59:38;;;;;;;;;;;16.80;99.90;;;;;;4976078;28;19929;-84
2021/08/23 10:02:06;;;;;;;;;;;16.80;99.90;;;;;;4990852;28;19922;-83
2021/08/23 10:04:35;;;;;;;;;;;16.70;99.90;;;;;;4991482;28;19922;-84
2021/08/23 10:07:02;;;;;;;;;;;16.70;99.90;;;;;;4991809;28;20053;-84
2021/08/23 10:09:28;;;;;;;;;;;16.60;99.90;;;;;;4975030;28;20390;-84
2021/08/23 10:11:55;;;;;;;;;;;16.60;99.90;;;;;;4990878;28;19977;-83
2021/08/23 10:14:23;;;;;;;;;;;16.60;99.90;;;;;;4975382;28;20432;-83
2021/08/23 10:16:50;;;;;;;;;;;16.70;99.90;;;;;;5006722;28;19930;-84
2021/08/23 10:19:25;;;;;;;;;;;16.70;99.90;;;;;;4974803;28;19925;-84
2021/08/23 10:21:51;;;;;;;;;;;16.60;99.90;;;;;;4992138;28;19969;-84
2021/08/23 10:24:27;;;;;;;;;;;16.60;99.90;;;;;;4988705;28;20451;-83
2021/08/23 10:26:54;;;;;;;;;;;16.60;99.90;;;;;;5002500;28;19951;-83
2021/08/23 10:29:20;;;;;;;;;;;16.60;99.90;;;;;;4990780;28;19926;-84
2021/08/23 10:31:46;;;;;;;;;;;16.60;99.90;;;;;;4990194;28;20367;-83
2021/08/23 10:34:16;;;;;;;;;;;16.60;99.90;;;;;;4990815;28;19997;-83
2021/08/23 10:36:43;;;;;;;;;;;16.70;99.90;;;;;;4988422;28;19937;-83
2021/08/23 10:39:10;;;;;;;;;;;16.70;99.90;;;;;;4990198;28;19926;-83
2021/08/23 10:41:36;;;;;;;;;;;16.70;99.90;;;;;;5006179;28;19969;-83
2021/08/23 10:44:04;;;;;;;;;;;16.70;99.90;;;;;;5006731;28;20015;-84
2021/08/23 10:46:37;;;;;;;;;;;16.70;99.90;;;;;;4974254;28;20317;-83
2021/08/23 10:49:11;;;;;;;;;;;16.70;99.90;;;;;;4975278;28;19922;-83
2021/08/23 10:51:38;;;;;;;;;;;16.70;99.90;;;;;;4976821;28;20413;-84
2021/08/23 10:54:27;;;;;;;;;;;16.80;99.90;;;;;;5001492;28;19934;-87
2021/08/23 10:56:59;;;;;;;;;;;16.80;99.90;;;;;;5008227;28;20009;-83
2021/08/23 10:59:56;;;;;;;;;;;16.80;99.90;;;;;;5006092;28;19964;-83
2021/08/23 11:02:32;;;;;;;;;;;16.90;99.90;;;;;;4987108;28;19928;-83
2021/08/23 11:04:58;;;;;;;;;;;16.80;99.90;;;;;;4992132;28;19947;-86
2021/08/23 11:07:25;;;;;;;;;;;16.80;99.90;;;;;;4994010;28;20373;-87
2021/08/23 11:10:00;;;;;;;;;;;16.80;99.90;;;;;;5005982;28;19932;-86
2021/08/23 11:12:26;;;;;;;;;;;16.80;99.90;;;;;;5017031;28;19925;-86
2021/08/23 11:14:53;;;;;;;;;;;16.90;99.90;;;;;;5000018;28;19930;-87
2021/08/23 11:17:32;;;;;;;;;;;16.80;99.90;;;;;;4992441;28;19930;-86
2021/08/23 11:20:00;;;;;;;;;;;16.90;99.90;;;;;;4983946;28;19932;-88
2021/08/23 11:22:30;;;;;;;;;;;16.90;99.90;;;;;;4993573;28;19976;-87
2021/08/23 11:24:57;;;;;;;;;;;16.90;99.90;;;;;;4993652;28;19934;-87
2021/08/23 11:27:23;;;;;;;;;;;16.90;99.90;;;;;;5008786;28;19932;-87
2021/08/23 11:29:51;;;;;;;;;;;17.00;99.90;;;;;;5007331;28;20247;-87
2021/08/23 11:32:18;;;;;;;;;;;17.00;99.90;;;;;;4989260;28;19992;-87
2021/08/23 11:34:48;;;;;;;;;;;17.00;99.90;;;;;;4972281;28;19930;-87
2021/08/23 11:37:15;;;;;;;;;;;17.20;99.90;;;;;;5008339;28;19926;-88
2021/08/23 11:39:42;;;;;;;;;;;17.10;99.90;;;;;;4991937;28;19933;-89
2021/08/23 11:42:08;;;;;;;;;;;17.00;99.90;;;;;;4992494;28;19996;-88
2021/08/23 11:44:37;;;;;;;;;;;17.00;99.90;;;;;;4991156;28;20317;-88
2021/08/23 11:47:05;;;;;;;;;;;17.10;99.90;;;;;;4976927;28;19925;-89
2021/08/23 11:49:33;;;;;;;;;;;17.20;99.90;;;;;;5026919;28;19929;-87
2021/08/23 11:52:19;;;;;;;;;;;17.20;99.90;;;;;;4998967;28;19940;-88
2021/08/23 11:54:57;;;;;;;;;;;17.20;99.90;;;;;;4972189;28;19926;-88
2021/08/23 11:57:25;;;;;;;;;;;17.20;99.90;;;;;;4988243;28;19961;-88
2021/08/23 11:59:55;;;;;;;;;;;17.20;99.90;;;;;;4988226;28;19922;-88
2021/08/23 12:02:36;;;;;;;;;;;17.30;99.90;;;;;;4988186;28;19968;-87
2021/08/23 12:05:13;;;;;;;;;;;17.30;99.90;;;;;;4971535;28;19926;-87
2021/08/23 12:07:49;;;;;;;;;;;17.30;99.90;;;;;;4988050;28;19926;-88
2021/08/23 12:10:41;;;;;;;;;;;17.30;99.90;;;;;;4986293;28;19976;-88
2021/08/23 12:13:12;;;;;;;;;;;17.30;99.90;;;;;;4983974;28;19961;-88
2021/08/23 12:15:49;;;;;;;;;;;17.30;99.90;;;;;;4970805;28;20032;-87
2021/08/23 12:18:15;;;;;;;;;;;17.30;99.90;;;;;;4986501;28;19930;-88
2021/08/23 12:20:42;;;;;;;;;;;17.40;99.90;;;;;;4971681;28;19933;-87
2021/08/23 12:23:08;;;;;;;;;;;17.40;99.90;;;;;;4987587;28;19936;-88
2021/08/23 12:25:40;;;;;;;;;;;17.50;99.90;;;;;;4971384;28;19922;-88
2021/08/23 12:28:14;;;;;;;;;;;17.30;99.90;;;;;;4987591;28;19929;-88
2021/08/23 12:30:40;;;;;;;;;;;17.40;99.90;;;;;;4966702;28;19937;-88
2021/08/23 12:33:14;;;;;;;;;;;17.50;99.90;;;;;;4971086;28;19932;-87
2021/08/23 12:35:40;;;;;;;;;;;17.50;99.90;;;;;;4970274;28;19926;-87
2021/08/23 12:38:06;;;;;;;;;;;17.60;99.90;;;;;;4965891;28;19949;-87
2021/08/23 12:40:32;;;;;;;;;;;17.60;99.90;;;;;;4970566;28;20043;-89
2021/08/23 12:42:58;;;;;;;;;;;17.60;99.90;;;;;;4954188;28;20293;-87
2021/08/23 12:45:25;;;;;;;;;;;17.70;99.90;;;;;;4956160;28;20004;-87
2021/08/23 12:47:52;;;;;;;;;;;17.60;99.90;;;;;;4986534;28;19930;-87
2021/08/23 12:50:18;;;;;;;;;;;17.60;99.90;;;;;;4970146;28;19926;-88
2021/08/23 12:52:44;;;;;;;;;;;17.60;99.90;;;;;;4984927;28;19921;-87
2021/08/23 12:55:10;;;;;;;;;;;17.60;99.90;;;;;;4990141;28;19929;-88
2021/08/23 12:57:38;;;;;;;;;;;17.70;99.90;;;;;;4990723;28;19922;-88
2021/08/23 13:00:07;;;;;;;;;;;17.70;99.90;;;;;;4987008;28;19996;-88
2021/08/23 13:02:34;;;;;;;;;;;17.70;99.90;;;;;;4990317;28;20426;-87
2021/08/23 13:04:59;;;;;;;;;;;17.70;99.90;;;;;;4987917;28;20439;-88
2021/08/23 13:07:25;;;;;;;;;;;17.70;99.90;;;;;;4984290;28;19926;-88
2021/08/23 13:09:51;;;;;;;;;;;17.70;99.90;;;;;;4988500;28;19979;-88
2021/08/23 13:12:17;;;;;;;;;;;17.70;99.90;;;;;;4989505;28;19936;-88
2021/08/23 13:14:43;;;;;;;;;;;17.70;99.90;;;;;;4989267;28;19930;-87
2021/08/23 13:17:08;;;;;;;;;;;17.80;99.90;;;;;;4987211;28;19925;-88
2021/08/23 13:19:34;;;;;;;;;;;17.80;99.90;;;;;;4992931;28;20044;-88
2021/08/23 13:22:00;;;;;;;;;;;17.80;99.90;;;;;;4989729;28;19921;-87
2021/08/23 13:24:26;;;;;;;;;;;17.90;99.90;;;;;;4989393;28;19932;-88
2021/08/23 13:26:52;;;;;;;;;;;18.00;99.90;;;;;;5005677;28;19926;-89
2021/08/23 13:29:17;;;;;;;;;;;18.10;99.90;;;;;;5003143;28;19933;-89
2021/08/23 13:31:43;;;;;;;;;;;18.00;99.90;;;;;;4991946;28;19921;-87
2021/08/23 13:34:09;;;;;;;;;;;18.10;99.90;;;;;;4973327;28;19926;-88
2021/08/23 13:36:34;;;;;;;;;;;18.10;99.90;;;;;;5006333;28;19984;-88
2021/08/23 13:39:00;;;;;;;;;;;18.10;99.90;;;;;;4989263;28;19926;-88
2021/08/23 13:41:26;;;;;;;;;;;18.20;99.90;;;;;;4974109;28;19922;-89
2021/08/23 13:43:51;;;;;;;;;;;18.10;99.90;;;;;;4997362;28;20369;-89
2021/08/23 13:46:17;;;;;;;;;;;18.10;99.90;;;;;;4990362;28;19977;-88
2021/08/23 13:48:43;;;;;;;;;;;18.10;99.90;;;;;;4990458;28;19932;-89
2021/08/23 13:51:08;;;;;;;;;;;18.10;99.90;;;;;;4990509;28;20384;-89
2021/08/23 13:53:34;;;;;;;;;;;18.10;99.90;;;;;;4995185;28;20016;-89
2021/08/23 13:56:00;;;;;;;;;;;18.10;99.90;;;;;;4995949;28;19930;-88
2021/08/23 13:58:26;;;;;;;;;;;18.10;99.90;;;;;;4979108;28;20016;-88
2021/08/23 14:00:51;;;;;;;;;;;18.10;99.90;;;;;;4995938;28;20312;-88
2021/08/23 14:03:17;;;;;;;;;;;18.10;99.90;;;;;;4992067;28;20365;-89
2021/08/23 14:05:43;;;;;;;;;;;18.10;99.90;;;;;;4975717;28;20010;-88
2021/08/23 14:08:08;;;;;;;;;;;18.10;99.90;;;;;;4969393;28;20502;-89
2021/08/23 14:10:34;;;;;;;;;;;18.10;99.90;;;;;;4994609;28;19929;-89
2021/08/23 14:13:00;;;;;;;;;;;18.10;99.90;;;;;;4995265;28;20012;-88
2021/08/23 14:15:33;;;;;;;;;;;18.10;99.90;;;;;;4994898;28;20452;-88
2021/08/23 14:18:01;;;;;;;;;;;18.20;99.90;;;;;;4994833;28;20323;-89